Pagrindinis puslapis
METAR-TAF:

METAR-TAF

Oro uostai :

Jizan, Saudo Arabija

platuma: 16-54N, ilguma: 042-35E, Aukštis: 6 m

Dabartinis oras

Ataskaita buvo paskelbta 56 minutes, ne 07:00 UTC
Vėjas 5 kt iš Pietų
Temperatūra 31°C
Drėgmė 66%
Slėgis 1015 hPa
Matomumas 10 km arba daugiau
Mažai debesys ne aukštis 2500 ft

METAR: OEGN 150700Z 19005KT 9999 FEW025 31/24 Q1015 NOSIG

Laikas: 10:56 (07:56 UTC)

Prognozė

Ataskaita buvo paskelbta 2 valandos ir 56 minutes, ne 05:00 UTC
Prognozė galioja nuo 15 metu 06 UTC su 15 metu 15 UTC
Vėjas 15 kt iš Pietvakarių
Matomumas: 7000 m
Mažai debesys ne aukštis 3000 ft
Laikinai
nuo 15 metu 10 UTC su 15 metu 15 UTC
Išsisklaidę debesys ne aukštis 3000 ft
Mažai debesys ne aukštis 3500 ft, Liūtiniai kamuoliniai debesys.

TAF: OEGN 150500Z 1506/1515 22015KT 7000 FEW030 TEMPO 1510/1515 SCT030 FEW035CB

Orai ataskaitas ir orų prognozės (METAR, TAF).

turimą stotys yra geltonos ir raudonos taškus žemėlapyje.

Perkelti pele per norėdami pamatyti stoties vardą.

Tada spustelėkite, norėdami matyti oro stebėjimo ir prognozės.

Norėdami pakeisti žemėlapį: spustelėkite ant žalios mygtukų su juodo kryžiaus žemyn,; žalią mygtuką su brūkšneliu, jei norite nutolinti; arba žalių rodyklių gretimoms žemėlapius.


METAR-TAF: